x

8447387 - Borden Flats Light At Fall River, Ma (bltm3) Weather Station

1:54 - Sat 1st Aug 2015 All times are EDT. -4 hours from GMT.

  • Wind
    23mph, 26mph gusts
  • Air Temp 83°f
  • Sea Pressure 1006.5mb
  • 8447387 - Borden Flats Light At Fall River, Ma
  • 8447387 - Borden Flats Light At Fall River, Ma

More Historic Weather Station data

Upgrade to MSW Pro to gain access to the past 30 days of data for over 8000 Wavebouys and Weather Stations around the globe.

Join Pro

Comparision Forecast

View Surf forecast
   
sam. 08/01 1:54 23 26 mph 1006.5mb 83f
1:48 18 26 mph 1006.6mb 83f
1:42 18 22 mph 1006.7mb 83f
1:36 16 21 mph 1007mb 83f
1:30 16 21 mph 1006.8mb 83f
1:24 16 22 mph 1007mb 83f
1:18 17 22 mph 1007mb 83f
1:12 16 20 mph 1007mb 83f
1:06 15 20 mph 1007.1mb 83f
1:00 14 15 mph 1007.1mb 82f
12:54 13 17 mph 1007.2mb 81f
12:48 11 14 mph 1007.3mb 81f
12:42 10 13 mph 1007.3mb 80f
12:36 10 11 mph 1007.4mb 80f
12:30 10 11 mph 1007.4mb 80f
12:24 10 11 mph 1007.4mb 80f
12:18 10 11 mph 1007.4mb 80f
12:12 10 11 mph 1007.3mb 80f
12:06 10 11 mph 1007.4mb 80f
12:00 10 11 mph 1007.4mb 80f
11:54 10 11 mph 1007.5mb 80f
11:48 10 11 mph 1007.5mb 80f
11:42 11
mph
1007.5mb 80f
11:36 11 13 mph 1007.5mb 80f
11:30 10 11 mph 1007.5mb 80f
11:24 13
mph
1007.5mb 80f
11:18 13 14 mph 1007.6mb 80f
11:12 14
mph
1007.6mb 80f
11:06 13 14 mph 1007.6mb 79f
11:00 13 14 mph 1007.6mb 79f
10:54 13 14 mph 1007.5mb 79f
10:48 11 13 mph 1007.5mb 79f
10:42 10 13 mph 1007.6mb 79f
10:36 9 11 mph 1007.6mb 78f
10:30 8 10 mph 1007.7mb 78f
10:24 9 10 mph 1007.7mb 78f
10:18 10 11 mph 1007.7mb 78f
10:12 10 11 mph 1007.7mb 78f
10:06 10 13 mph 1007.7mb 78f
10:00 11 13 mph 1007.7mb 77f
9:54 11 13 mph 1007.6mb 77f
9:48 10 11 mph 1007.7mb 77f
9:42 10 11 mph 1007.7mb 77f
9:36 9 11 mph 1007.7mb 77f
9:30 10 11 mph 1007.7mb 76f
9:24 11 14 mph 1007.7mb 76f
9:18 14 15 mph 1007.6mb 76f
9:12 13 14 mph 1007.5mb 77f
9:06 14 16 mph 1007.4mb 77f
9:00 13 14 mph 1007.5mb 77f
8:54 13 16 mph 1007.6mb 77f
8:48 13 16 mph 1007.5mb 77f
8:42 10 14 mph 1007.5mb 77f
8:36 11 13 mph 1007.5mb 77f
8:30 13 14 mph 1007.5mb 77f
8:24 10 13 mph 1007.5mb 76f
8:18 13 15 mph 1007.5mb 76f
8:12 13 15 mph 1007.5mb 76f
8:06 13 14 mph 1007.6mb 76f
8:00 14 15 mph 1007.5mb 76f
7:54 14 15 mph 1007.5mb 76f
7:48 14 15 mph 1007.4mb 76f
7:42 13 14 mph 1007.5mb 76f
7:36 11 14 mph 1007.6mb 77f
7:30 11 15 mph 1007.6mb 77f
7:24 13 15 mph 1007.5mb 76f
7:18 11 15 mph 1007.6mb 76f
7:12 11 14 mph 1007.5mb 76f
7:06 10 13 mph 1007.5mb 76f
7:00 9 11 mph 1007.5mb 76f
6:54 8 9 mph 1007.6mb 76f
6:48 7 9 mph 1007.5mb 75f
6:42 7 8 mph 1007.5mb 75f
6:36 5 7 mph 1007.6mb 75f
6:30 5 7 mph 1007.6mb 75f
6:24 3 6 mph 1007.6mb 74f
6:18 5 6 mph 1007.6mb 74f
6:12 6 7 mph 1007.6mb 74f
6:06 7 9 mph 1007.5mb 74f
6:00 7 8 mph 1007.5mb 74f
5:54 7 10 mph 1007.6mb 74f
5:48 7 9 mph 1007.5mb 74f
5:42 8 9 mph 1007.5mb 74f
5:36 7 9 mph 1007.5mb 74f
5:30 6 7 mph 1007.4mb 74f
5:24 7 8 mph 1007.4mb 74f
5:18 8 9 mph 1007.4mb 74f
5:12 8 9 mph 1007.4mb 74f
5:06 9 10 mph 1007.4mb 75f
5:00 8 9 mph 1007.5mb 75f
4:54 6 8 mph 1007.5mb 75f
4:48 5 6 mph 1007.6mb 74f
4:42 3 6 mph 1007.6mb 74f
4:36 2 5 mph 1007.6mb 74f
4:30 1 2 mph 1007.6mb 74f
4:24 2
mph
1007.7mb 74f
4:18 2 3 mph 1007.7mb 74f
4:12 2 3 mph 1007.8mb 74f
4:06 2 3 mph 1007.8mb 75f
4:00 3 5 mph 1007.8mb 74f
3:54 1 3 mph 1007.9mb 73f
3:48  -  2 mph 1007.9mb 73f
3:42 1 2 mph 1008mb 74f
3:36 2 3 mph 1008.1mb 74f
3:30 2
mph
1008.1mb 74f
3:24 2
mph
1008.1mb 74f
3:18 1 2 mph 1008.1mb 74f
3:12 2
mph
1008.2mb 74f
3:06 2
mph
1008.1mb 74f
3:00 2
mph
1008.1mb 74f
2:54 2 3 mph 1008.2mb 74f
2:48  -  mph 1008.3mb 74f
2:42  -  mph 1008.3mb 73f
2:36  -  mph 1008.3mb 73f
2:30 5
mph
1008.4mb 74f
2:24 5 6 mph 1008.4mb 74f
2:18 5 6 mph 1008.4mb 74f
2:12 5
mph
1008.5mb 74f
2:06 5 6 mph 1008.5mb 74f
2:00 6
mph
1008.6mb 75f
1:54 5 6 mph 1008.7mb 75f
1:48 5 6 mph 1008.7mb 75f
1:42 6
mph
1008.8mb 75f
1:36 6
mph
1008.9mb 75f
1:30 5 6 mph 1008.9mb 75f
1:24 5 6 mph 1008.9mb 75f
1:18 5 6 mph 1008.9mb 76f
1:12 5 6 mph 1009mb 76f
1:06 5 6 mph 1009mb 75f
1:00 3 5 mph 1009.1mb 75f
12:54 3 5 mph 1009.1mb 75f
12:48 3 5 mph 1009.2mb 76f
12:42 3 5 mph 1009.3mb 76f
12:36 3 5 mph 1009.4mb 76f
12:30 2 3 mph 1009.3mb 76f
12:24 1 2 mph 1009.4mb 76f
12:18  -  1 mph 1009.4mb 75f
12:12  -  1 mph 1009.3mb 75f
12:06 2 5 mph 1009.3mb 75f
12:00 1 3 mph 1009.3mb 76f
ven. 07/31 11:54 2 6 mph 1009.3mb 76f
11:48 1 3 mph 1009.4mb 76f
11:42 2 3 mph 1009.4mb 76f
11:36  -  2 mph 1009.4mb 76f
11:30  -  1 mph 1009.4mb 76f
11:24 2 3 mph 1009.4mb 77f
11:18 2 3 mph 1009.4mb 77f
11:12  -  1 mph 1009.3mb 77f
11:06  -  1 mph 1009.3mb 77f
11:00 2 3 mph 1009.2mb 77f
10:54 3 5 mph 1009.2mb 77f
10:48 3 5 mph 1009.2mb 77f
10:42 2 3 mph 1009.2mb 78f
10:36 3 5 mph 1009.1mb 78f
10:30 3 5 mph 1009.1mb 78f
10:24 3 5 mph 1009.2mb 78f
10:18 3 5 mph 1009.2mb 78f
10:12 5 6 mph 1009.1mb 79f
10:06  -  2 mph 1009.1mb 79f
10:00 2 3 mph 1009.1mb 79f
9:54 2 3 mph 1009.1mb 79f
9:48  -  2 mph 1009mb 78f
9:42  -  2 mph 1009mb 79f
9:36 1 2 mph 1009mb 79f
9:30  -  1 mph 1009mb 79f
9:24 1 2 mph 1009mb 79f
9:18 2
mph
1008.8mb 79f
9:12  -  2 mph 1008.8mb 78f
9:06  -  1 mph 1008.7mb 79f
9:00 1 2 mph 1008.6mb 80f
8:54 1 2 mph 1008.6mb 80f
8:48 2 3 mph 1008.4mb 81f
8:42 1 2 mph 1008.4mb 81f
8:36 1 2 mph 1008.3mb 81f
8:30 2 3 mph 1008.3mb 81f
8:24 3 5 mph 1008.2mb 82f
8:18 3
mph
1008.2mb 82f
8:12 3 6 mph 1008.2mb 82f
8:06 5 8 mph 1008.1mb 83f
8:00 8 11 mph 1008mb 83f
7:54 11 15 mph 1008mb 83f
7:48 10 15 mph 1008mb 84f
7:42 8 13 mph 1007.9mb 84f
7:36 9 13 mph 1007.8mb 83f
7:00 13 15 mph 1007.7mb 84f
6:54 13 15 mph 1007.6mb 84f
6:48 15 17 mph 1007.6mb 84f
6:42 15 20 mph 1007.6mb 84f
6:36 14 16 mph 1007.6mb 84f
6:30 11 14 mph 1007.5mb 84f
6:24 11 15 mph 1007.5mb 85f
6:18 14 16 mph 1007.6mb 85f
6:12 17 22 mph 1007.6mb 85f
6:06 16 20 mph 1007.6mb 85f
6:00 15 20 mph 1007.6mb 85f
5:54 15 20 mph 1007.6mb 85f
5:48 17 21 mph 1007.6mb 85f
5:42 14 18 mph 1007.5mb 85f
5:36 13 17 mph 1007.5mb 85f
5:30 16 20 mph 1007.5mb 85f
5:24 17 21 mph 1007.5mb 85f
5:18 20 23 mph 1007.4mb 85f
5:12 16 18 mph 1007.5mb 85f
5:06 17 23 mph 1007.6mb 85f
5:00 16 22 mph 1007.6mb 85f
4:54 20 23 mph 1007.6mb 84f
4:48 18 22 mph 1007.5mb 84f
4:42 16 20 mph 1007.6mb 82f
4:36 14 16 mph 1007.7mb 84f
4:30 20 23 mph 1007.6mb 85f
4:24 14 17 mph 1007.6mb 84f
4:18 14 17 mph 1007.6mb 84f
4:12 16 18 mph 1007.6mb 84f
4:06 14 16 mph 1007.6mb 83f
4:00 14 16 mph 1007.6mb 84f
3:54 15 17 mph 1007.6mb 83f
3:48 14 17 mph 1007.6mb 84f
3:42 17 21 mph 1007.6mb 84f
3:36 17 22 mph 1007.6mb 84f
3:30 17 21 mph 1007.6mb 83f
3:24 18 24 mph 1007.6mb 83f
3:18 15 17 mph 1007.7mb 83f
3:12 16 21 mph 1007.8mb 83f
3:06 15 17 mph 1007.9mb 83f
3:00 15 18 mph 1007.9mb 83f
2:54 16 21 mph 1007.9mb 83f
2:48 16 18 mph 1007.9mb 82f
2:42 17 21 mph 1008mb 83f
2:36 16 20 mph 1008mb 83f
2:30 18 21 mph 1008.1mb 82f
2:24 17 20 mph 1008.1mb 82f
2:18 15 18 mph 1008.2mb 83f
2:12 17 21 mph 1008.2mb 82f
2:06 16 18 mph 1008.3mb 82f
2:00 14 20 mph 1008.4mb 83f
1:54 15 17 mph 1008.3mb 82f
1:48 16 20 mph 1008.4mb 82f
1:42 14 21 mph 1008.4mb 82f
1:36 14 16 mph 1008.5mb 82f
1:30 16 20 mph 1008.5mb 82f
1:24 16 18 mph 1008.6mb 82f
1:18 15 20 mph 1008.6mb 82f
1:12 15 16 mph 1008.7mb 82f
1:06 16 21 mph 1008.7mb 82f
1:00 15 18 mph 1008.8mb 82f
12:54 11 15 mph 1008.9mb 82f
12:48 14 17 mph 1008.9mb 82f
12:42 15 17 mph 1009mb 82f
12:36 17 22 mph 1009mb 81f
12:30 15 20 mph 1009mb 82f
12:24 15 18 mph 1009.1mb 81f
12:18 13 15 mph 1009.1mb 81f
12:12 11 14 mph 1009.2mb 81f
12:06 14 17 mph 1009.2mb 81f
12:00 14 16 mph 1009.2mb 81f
11:54 10 13 mph 1009.3mb 81f
11:48 13 17 mph 1009.3mb 81f
11:42 10 13 mph 1009.4mb 79f
11:36 11 13 mph 1009.4mb 79f
11:30 13 14 mph 1009.4mb 79f
11:24 11 13 mph 1009.5mb 79f
11:18 13 15 mph 1009.5mb 78f
11:12 13 14 mph 1009.5mb 78f
11:06 11 13 mph 1009.5mb 78f
11:00 11 13 mph 1009.5mb 78f
10:54 13 14 mph 1009.5mb 78f
10:48 11 13 mph 1009.5mb 78f
10:42 10 11 mph 1009.5mb 78f
10:36 10 11 mph 1009.5mb 78f
10:30 10 11 mph 1009.5mb 78f
10:24 10
mph
1009.5mb 78f
10:18 8 9 mph 1009.5mb 78f
10:12 8 9 mph 1009.5mb 78f
10:06 7 8 mph 1009.4mb 78f
10:00 8
mph
1009.5mb 78f
9:54 8 9 mph 1009.5mb 78f
9:48 9 11 mph 1009.5mb 77f
9:42 9 10 mph 1009.5mb 77f
9:36 8 9 mph 1009.5mb 77f
9:30 8
mph
1009.6mb 77f
9:24 7 8 mph 1009.6mb 77f
9:18 7
mph
1009.6mb 77f
9:12 7 8 mph 1009.6mb 77f
9:06 7 8 mph 1009.6mb 77f
9:00 7 8 mph 1009.6mb 77f
8:54 8 9 mph 1009.6mb 76f
8:48 7 8 mph 1009.6mb 76f
8:42 7 9 mph 1009.7mb 76f
8:36 8 9 mph 1009.7mb 76f
8:30 8 9 mph 1009.7mb 76f
8:24 6 8 mph 1009.7mb 76f
8:18 6 8 mph 1009.6mb 76f
8:12 7 9 mph 1009.6mb 76f
8:06 7 8 mph 1009.7mb 76f
8:00 8 9 mph 1009.7mb 75f
7:54 9 10 mph 1009.8mb 75f
7:48 9 11 mph 1009.8mb 75f
7:42 9 10 mph 1009.7mb 75f
7:36 9 10 mph 1009.7mb 75f
7:30 8 11 mph 1009.6mb 75f
7:24 8 10 mph 1009.6mb 75f
7:18 8 9 mph 1009.6mb 75f
7:12 8 10 mph 1009.5mb 74f
7:06 8 9 mph 1009.4mb 74f
7:00 8 9 mph 1009.3mb 74f
6:54 6 8 mph 1009.3mb 74f
6:48 6 7 mph 1009.2mb 74f
6:42 6 7 mph 1009.2mb 74f
6:36 7 8 mph 1009.2mb 74f
6:30 6 8 mph 1009.1mb 74f
6:24 7 8 mph 1009mb 75f
6:18 7 9 mph 1009mb 75f
6:12 8 9 mph 1009mb 75f
6:06 9 10 mph 1008.9mb 75f
6:00 8 9 mph 1008.9mb 74f
5:54 9
mph
1008.8mb 75f
5:48 9 10 mph 1008.8mb 75f
5:42 8 9 mph 1008.7mb 75f
5:36 8 9 mph 1008.8mb 75f
5:30 9 10 mph 1008.7mb 75f
5:24 8 10 mph 1008.6mb 75f
5:18 8 9 mph 1008.6mb 75f
5:12 7 9 mph 1008.6mb 75f
5:06 7 9 mph 1008.5mb 75f
5:00 8 9 mph 1008.5mb 75f
4:54 8 9 mph 1008.5mb 75f
4:48 8 9 mph 1008.4mb 75f
4:42 8 10 mph 1008.4mb 75f
4:36 8 9 mph 1008.4mb 75f
4:30 7 9 mph 1008.4mb 75f
4:24 7 8 mph 1008.3mb 75f
4:18 7 8 mph 1008.2mb 75f
4:12 7 8 mph 1008.2mb 75f
4:06 7 8 mph 1008.3mb 75f
4:00 7 8 mph 1008.3mb 75f
3:54 6 7 mph 1008.3mb 75f
3:48 6 7 mph 1008.3mb 75f
3:42 5 6 mph 1008.2mb 75f
3:36 6 7 mph 1008.2mb 75f
3:30 6 7 mph 1008.3mb 75f
3:24 6 7 mph 1008.4mb 75f
3:18 8 9 mph 1008.4mb 75f
3:12 7 8 mph 1008.4mb 75f
3:06 6 7 mph 1008.3mb 75f
3:00 7
mph
1008.3mb 75f
2:54 6
mph
1008.3mb 75f
2:48 6 7 mph 1008.4mb 75f
2:42 7 8 mph 1008.5mb 75f
2:36 6 7 mph 1008.5mb 75f
2:30 7 8 mph 1008.6mb 75f
2:24 8 9 mph 1008.7mb 75f
2:18 9 11 mph 1008.8mb 75f
2:12 9 10 mph 1008.8mb 75f
2:06 9
mph
1008.8mb 75f
2:00 9 10 mph 1008.8mb 75f
1:54 10 11 mph 1008.9mb 75f
1:48 10 11 mph 1008.9mb 75f
1:42 10 11 mph 1008.9mb 75f
1:36 10 11 mph 1008.8mb 75f
1:30 9 10 mph 1008.9mb 75f
1:24 9 10 mph 1008.9mb 75f
1:18 10
mph
1008.9mb 75f
1:12 9 10 mph 1008.9mb 75f
1:06 9 10 mph 1008.9mb 75f
1:00 8 10 mph 1008.9mb 75f
12:54 9 10 mph 1008.9mb 75f
12:48 10 11 mph 1009.1mb 75f
12:42 10 13 mph 1009.2mb 75f
12:36 9 11 mph 1009.2mb 75f
12:30 10 13 mph 1009.2mb 75f
12:24 10 11 mph 1009.1mb 75f
12:18 6 8 mph 1009mb 75f
12:12 5 6 mph 1009mb 75f
12:06 6 7 mph 1009mb 75f
12:00 7 8 mph 1009.1mb 75f
jeu. 07/30 11:54 8 9 mph 1009.2mb 75f
11:48 9 10 mph 1009.2mb 75f
11:42 9 10 mph 1009.2mb 75f
11:36 8 9 mph 1009.3mb 75f
11:30 8 10 mph 1009.2mb 75f
11:24 9 10 mph 1009.2mb 75f
11:18 9 11 mph 1009.2mb 75f
11:12 9 10 mph 1009.3mb 75f
11:06 9 11 mph 1009.2mb 75f
11:00 9 10 mph 1009.3mb 75f
10:54 10 11 mph 1009.4mb 75f
10:48 10 11 mph 1009.5mb 75f
10:42 11 13 mph 1009.6mb 75f
10:36 10 13 mph 1009.6mb 75f
10:30 10 13 mph 1009.5mb 75f
10:24 10 14 mph 1009.5mb 75f
10:18 13 15 mph 1009.5mb 75f
10:12 14 16 mph 1009.5mb 75f
10:06 13 16 mph 1009.5mb 75f
10:00 14 17 mph 1009.5mb 75f
9:54 15 17 mph 1009.6mb 75f
9:48 16 18 mph 1009.5mb 75f
9:42 16 20 mph 1009.5mb 75f
9:36 13 17 mph 1009.5mb 75f
9:30 14 18 mph 1009.4mb 75f
9:24 13 18 mph 1009.3mb 75f
9:18 11 14 mph 1009.3mb 74f
9:12 11 13 mph 1009.3mb 74f
9:06 13 15 mph 1009.3mb 75f
9:00 14 17 mph 1009.3mb 75f
8:54 15 18 mph 1009.1mb 75f
8:48 14 21 mph 1009mb 74f
8:42 16 20 mph 1009.1mb 74f
8:36 16 22 mph 1009.3mb 74f
8:30 14 17 mph 1009.4mb 74f
8:24 18 23 mph 1009.5mb 75f
8:18 18 23 mph 1009.5mb 74f
8:12 18 23 mph 1009.6mb 74f
8:06 26 31 mph 1009.6mb 75f
8:00 24 30 mph 1009.6mb 76f
7:54 18 22 mph 1009.8mb 76f
7:48 18 23 mph 1009.7mb 76f
7:42 20 22 mph 1009.7mb 76f
7:36 20 24 mph 1009.7mb 76f
7:30 21 23 mph 1009.7mb 76f
7:24 21 23 mph 1009.7mb 76f
7:12 21 25 mph 1009.6mb 77f
7:06 23 29 mph 1009.5mb 77f
7:00 21 25 mph 1009.5mb 77f
6:54 20 24 mph 1009.5mb 77f
6:48 21 24 mph 1009.4mb 77f
6:42 22 26 mph 1009.4mb 77f
6:36 18 24 mph 1009.4mb 77f
6:30 20 25 mph 1009.3mb 77f
6:24 20 26 mph 1009.2mb 77f
6:18 21 28 mph 1009.1mb 78f
6:12 22 29 mph 1009.1mb 78f
6:06 21 25 mph 1009.2mb 78f
6:00 20 24 mph 1009.2mb 78f
5:54 20 26 mph 1009.2mb 78f
5:48 17 22 mph 1009.2mb 78f
5:42 20 25 mph 1009.2mb 78f
5:36 17 21 mph 1009.2mb 78f
5:30 21 29 mph 1009.2mb 78f
5:24 23 29 mph 1009.2mb 78f
5:18 20 24 mph 1009.4mb 79f
5:12 20 25 mph 1009.4mb 79f
5:06 21 26 mph 1009.3mb 79f
4:54 18 23 mph 1009.2mb 79f
4:48 22 26 mph 1009.1mb 79f
4:42 21 25 mph 1009.2mb 79f
4:36 20 29 mph 1009.1mb 79f
4:30 23 30 mph 1009mb 80f
4:24 21 29 mph 1009.1mb 80f
4:18 21 26 mph 1009.2mb 80f
4:12 20 25 mph 1009.3mb 80f
4:06 21 25 mph 1009.4mb 80f
4:00 18 23 mph 1009.4mb 80f
3:54 20 28 mph 1009.4mb 80f
3:48 17 23 mph 1009.4mb 80f
3:42 18 25 mph 1009.4mb 80f
3:36 18 24 mph 1009.5mb 80f
3:30 22 25 mph 1009.6mb 80f
3:24 22 28 mph 1009.7mb 80f
3:18 21 26 mph 1009.8mb 81f
3:12 20 23 mph 1009.8mb 80f
3:06 21 24 mph 1009.9mb 80f
3:00 18 24 mph 1010mb 81f
2:54 21 24 mph 1010mb 80f
2:48 20 25 mph 1010mb 80f
2:42 18 23 mph 1010.1mb 81f
2:36 17 23 mph 1010.2mb 81f
2:30 21 25 mph 1010.2mb 81f
2:24 22 29 mph 1010.2mb 81f
2:18 18 23 mph 1010.3mb 81f
2:12 20 26 mph 1010.4mb 81f
2:06 22 26 mph 1010.5mb 81f
2:00 20 25 mph 1010.5mb 81f
1:54 16 22 mph 1010.6mb 81f
1:48 17 22 mph 1010.7mb 81f
1:42 20 25 mph 1010.7mb 81f
1:36 18 23 mph 1010.8mb 81f
1:30 17 23 mph 1010.8mb 81f
1:24 20 23 mph 1010.8mb 80f
1:18 18 22 mph 1010.9mb 81f
1:12 18 23 mph 1010.9mb 81f
1:06 18 23 mph 1011mb 81f
1:00 21 24 mph 1011mb 81f
12:54 18 22 mph 1011mb 81f
12:48 18 23 mph 1011.1mb 81f
12:42 17 22 mph 1011.1mb 81f
12:36 17 22 mph 1011.2mb 81f
12:30 18 22 mph 1011.2mb 81f
12:24 17 20 mph 1011.2mb 81f
12:18 18 22 mph 1011.2mb 81f
12:12 18 22 mph 1011.1mb 81f
12:06 18 22 mph 1011.2mb 81f
12:00 18 22 mph 1011.2mb 81f
11:54 20 22 mph 1011.2mb 81f
11:48 17 21 mph 1011.3mb 81f
11:42 17 20 mph 1011.3mb 81f
11:36 18 21 mph 1011.3mb 81f
11:30 17 21 mph 1011.4mb 81f
11:24 18 21 mph 1011.5mb 81f
11:18 16 18 mph 1011.5mb 81f
11:12 16 17 mph 1011.5mb 81f
11:06 15 17 mph 1011.4mb 81f
11:00 14 17 mph 1011.5mb 80f
10:54 15 17 mph 1011.6mb 80f
10:48 14 16 mph 1011.6mb 80f
10:42 14 16 mph 1011.6mb 80f
10:36 14 16 mph 1011.6mb 80f
10:30 14 16 mph 1011.6mb 80f
10:24 14 16 mph 1011.7mb 79f
10:18 13 14 mph 1011.7mb 79f
10:12 13 14 mph 1011.7mb 79f
10:06 13 14 mph 1011.7mb 78f
10:00 11 13 mph 1011.8mb 78f
9:54 11 13 mph 1011.9mb 78f
9:48 13 14 mph 1011.9mb 78f
9:42 13 14 mph 1011.9mb 78f
9:36 13 14 mph 1012mb 78f
9:30 13 15 mph 1012mb 77f
9:24 14 16 mph 1012.1mb 77f
9:18 14 16 mph 1012.1mb 77f
9:12 15 16 mph 1012.2mb 77f
9:06 15 17 mph 1012.3mb 77f
9:00 14 16 mph 1012.3mb 77f
8:54 15 17 mph 1012.4mb 77f
8:48  -  mph - 77f
8:42  -  mph - 76f
8:36  -  mph - 77f
8:30  -  mph - 76f
8:24  -  mph - 76f
8:18  -  mph - 76f
8:12  -  mph - 76f
8:06  -  mph - 76f
8:00  -  mph - 76f
7:54  -  mph - 76f
7:48  -  mph - 76f
7:30  -  mph - 76f
7:24  -  mph - 76f
7:18  -  mph - 76f
7:12  -  mph - 76f
7:06  -  mph - 76f
7:00  -  mph - 76f
6:54  -  mph - 75f
6:48  -  mph - 76f
6:42  -  mph - 76f
6:36  -  mph - 76f
6:30  -  mph - 75f
6:24  -  mph - 75f
6:18  -  mph - 75f
6:12  -  mph - 75f
6:06  -  mph - 75f
6:00  -  mph - 75f
5:54  -  mph - 75f
5:48  -  mph 1012mb 75f
5:42  -  mph 1012mb 75f
5:36  -  mph 1012mb 75f
5:30  -  mph 1012mb 76f
5:24  -  mph 1012mb 76f
5:18  -  mph - 76f
5:12  -  mph - 76f
5:06  -  mph - 76f
5:00  -  mph - 76f
4:54  -  mph - 76f
4:48  -  mph - 76f
4:42  -  mph - 76f
4:36  -  mph - 76f
4:30  -  mph - 76f
4:24  -  mph - 76f
4:18  -  mph - 76f
4:12  -  mph - 76f
4:06  -  mph - 76f
4:00  -  mph 1012.1mb 76f
3:54  -  mph 1012.1mb 76f
3:48  -  mph - 76f
3:42  -  mph - 76f
3:36  -  mph - 76f
3:30  -  mph - 76f
3:24  -  mph - 76f
3:18  -  mph - 76f
3:12  -  mph - 76f
3:06  -  mph - 76f
3:00  -  mph - 76f
2:54  -  mph - 76f
2:48  -  mph - 76f
2:42  -  mph - 76f
2:36  -  mph - 76f
2:30  -  mph 1012.4mb 76f
2:24  -  mph 1012.4mb 76f
2:18  -  mph 1012.4mb 76f
2:12  -  mph 1012.4mb 76f
2:06  -  mph 1012.5mb 76f
2:00  -  mph 1012.5mb 76f
1:54  -  mph 1012.5mb 76f
1:48  -  mph 1012.5mb 76f
1:18  -  mph - 77f
1:12  -  mph - 77f
1:06  -  mph - 77f
1:00  -  mph - 77f
12:54  -  mph - 77f
12:48  -  mph - 77f
12:42  -  mph - 77f
12:36  -  mph - 77f
12:30  -  mph - 77f
12:24  -  mph - 77f
12:18  -  mph - 77f
12:12  -  mph - 77f
12:06  -  mph - 77f
12:00  -  mph - 77f
mer. 07/29 11:54  -  mph - 77f
11:48  -  mph - 77f
11:42  -  mph - 77f
11:36  -  mph - 77f
11:30  -  mph - 78f
11:24  -  mph - 78f
11:18  -  mph - 78f
11:12  -  mph - 78f
11:06  -  mph - 78f
11:00  -  mph - 78f
10:54  -  mph - 78f
10:48  -  mph - 79f
10:42  -  mph - 79f
10:36  -  mph - 79f
10:30  -  mph - 79f
10:24  -  mph - 79f
10:18  -  mph - 79f
10:12  -  mph - 79f
10:06  -  mph - 80f
10:00  -  mph - 80f
9:54  -  mph - 80f
9:48 11 14 mph 1012.7mb 80f
9:42 10 13 mph 1012.7mb 80f
9:36 10 14 mph 1012.6mb 80f
9:30  -  mph - 80f
9:24  -  mph - 80f
9:18  -  mph - 79f
9:12  -  mph - 78f
9:06  -  mph - 78f
9:00  -  mph - 78f
8:54  -  mph - 78f
8:48 8 10 mph 1012.6mb 78f
8:42 7 8 mph 1012.7mb 78f
8:36 7 8 mph 1012.6mb 78f
8:30  -  mph 1012.6mb 78f
8:24  -  mph 1012.5mb 78f
8:18  -  mph 1012.5mb 78f
8:12  -  mph 1012.5mb 78f
8:06  -  mph 1012.5mb 79f
8:00  -  mph - 79f
7:54  -  mph - 81f
7:48  -  mph - 82f
7:42  -  mph - 82f
7:36  -  mph - 82f
7:30  -  mph - 82f
7:24  -  mph - 82f
7:18  -  mph - 80f
7:12  -  mph - 80f
7:06  -  mph - 81f
7:00 15 16 mph 1012mb 82f
6:54 16 17 mph 1012mb 82f
6:48 15 18 mph 1011.9mb 82f
6:42 15 17 mph 1011.9mb 81f
6:36 15 16 mph 1011.9mb 81f
6:30  -  mph - 81f
6:24  -  mph - 81f
6:18  -  mph - 81f
6:12  -  mph - 81f
6:06  -  mph - 81f
6:00  -  mph - 82f
5:54  -  mph - 83f
5:48  -  mph - 83f
5:42  -  mph - 83f
5:36  -  mph - 84f
5:30  -  mph - 84f
5:24  -  mph - 85f
5:18  -  mph - 85f
5:12  -  mph - 85f
5:06  -  mph - 85f
5:00  -  mph 1012.1mb 85f
4:54  -  mph 1012.1mb 85f
4:48  -  mph 1012.1mb 85f
4:42  -  mph 1012.2mb 86f
4:36  -  mph 1012.2mb 86f
4:30  -  mph 1012.3mb 86f
4:24  -  mph 1012.4mb 86f
4:18  -  mph - 86f
4:12  -  mph - 86f
4:06  -  mph - 86f
4:00  -  mph - 86f
3:54  -  mph - 86f
3:48  -  mph - 86f
3:42  -  mph - 87f
3:36  -  mph - 86f
3:30  -  mph - 87f
3:24  -  mph - 87f
3:18  -  mph - 87f
3:12  -  mph - 87f
3:06  -  mph - 87f
3:00  -  mph - 87f
2:54  -  mph - 86f
2:48  -  mph - 86f
2:42  -  mph - 86f
2:36  -  mph - 87f
2:30  -  mph - 86f
2:24  -  mph - 86f
2:18  -  mph - 86f
2:12  -  mph - 86f
2:06  -  mph - 86f
2:00  -  mph - 86f
1:54  -  mph - 86f
1:48  -  mph - 86f
1:42  -  mph - 85f
1:36  -  mph - 83f
1:30  -  mph - 83f
1:24  -  mph - 83f
1:18 13 15 mph 1013.4mb 83f
1:12 11 13 mph 1013.4mb 84f
1:06 11 13 mph 1013.5mb 82f
1:00 11
mph
1013.6mb 81f
12:54 10 11 mph 1013.6mb 82f
12:48 10
mph
1013.6mb 82f
11:54 11
mph
1013.9mb 79f
11:48 10 11 mph 1013.9mb 79f
11:42 8 9 mph 1014mb 79f
11:36 8
mph
1014.1mb 79f
11:30 8
mph
1014.1mb 79f
11:24 6 7 mph 1014.1mb 78f
11:18 6
mph
1014.1mb 79f
11:12 5 6 mph 1014.2mb 78f
11:06 5
mph
1014.3mb 78f
11:00 6
mph
1014.3mb 78f
10:54 6
mph
1014.4mb 78f
10:48 5 7 mph 1014.5mb 78f
10:42 5
mph
1014.5mb 79f
10:36 5
mph
1014.5mb 79f
10:30 3 5 mph 1014.6mb 79f
10:24 5
mph
1014.5mb 80f
10:18 5
mph
1014.5mb 79f
10:12 5
mph
1014.4mb 78f
10:06 5 6 mph 1014.4mb 78f
10:00 5 6 mph 1014.4mb 77f
9:54 5
mph
1014.4mb 77f
9:48 5
mph
1014.4mb 76f
9:42 5
mph
1014.4mb 76f
9:36 3
mph
1014.3mb 76f
9:30 3
mph
1014.3mb 76f
9:24 3
mph
1014.3mb 76f
9:18 3
mph
1014.3mb 76f
9:12 2 3 mph 1014.4mb 76f
9:06 3
mph
1014.3mb 76f
9:00 2 3 mph 1014.3mb 76f
8:54 1 2 mph 1014.2mb 75f
8:48 1
mph
1014.2mb 75f
8:42 2
mph
1014.3mb 75f
8:36  -  mph 1014.3mb 75f
8:30  -  mph 1014.3mb 75f
8:24  -  mph 1014.3mb 75f
8:18  -  1 mph 1014.3mb 75f
8:12  -  1 mph 1014.4mb 74f
8:06 1 2 mph 1014.4mb 74f
8:00 2
mph
1014.4mb 74f
7:54  -  1 mph 1014.4mb 74f
7:48  -  mph 1014.4mb 74f
7:42  -  mph 1014.4mb 73f
7:36  -  mph 1014.4mb 73f
7:30  -  mph 1014.5mb 73f
7:24  -  mph 1014.5mb 73f
7:18  -  mph 1014.4mb 73f
7:12  -  mph 1014.4mb 73f
7:06  -  mph 1014.4mb 73f
7:00  -  1 mph 1014.4mb 72f
6:54 1 2 mph 1014.3mb 72f
6:48  -  1 mph 1014.3mb 72f
6:42 1 2 mph 1014.3mb 72f
6:36 2 3 mph 1014.3mb 72f
6:30 3 5 mph 1014.2mb 72f
6:24 3
mph
1014.2mb 72f
6:18 3 5 mph 1014.1mb 72f
6:12 3
mph
1014.2mb 72f
6:06 3
mph
1014.1mb 72f
6:00 3
mph
1014.1mb 71f
5:54 2
mph
1014mb 71f
5:48  -  1 mph 1013.9mb 71f
5:42  -  1 mph 1013.8mb 71f
5:36  -  1 mph 1013.8mb 71f
5:30 1 2 mph 1013.8mb 71f
5:24 1 2 mph 1013.8mb 72f
5:18  -  1 mph 1013.8mb 72f
5:12  -  1 mph 1013.7mb 72f
5:06 1 2 mph 1013.7mb 72f
5:00 1 2 mph 1013.6mb 72f
4:54  -  1 mph 1013.5mb 72f
4:48 1
mph
1013.6mb 72f
4:42  -  mph 1013.6mb 72f
4:36  -  1 mph 1013.5mb 72f
4:30  -  1 mph 1013.4mb 72f
4:24  -  mph 1013.4mb 72f
4:18  -  mph 1013.5mb 72f
4:12  -  1 mph 1013.4mb 72f
4:06 1 2 mph 1013.4mb 72f
4:00 1 2 mph 1013.4mb 72f
3:54 1 2 mph 1013.4mb 72f
3:48 2 3 mph 1013.4mb 72f
3:42 3 5 mph 1013.4mb 72f
3:36 5
mph
1013.4mb 72f
3:30 5 6 mph 1013.4mb 72f
3:24 6 7 mph 1013.4mb 72f
3:18 6 7 mph 1013.3mb 72f
3:12 6
mph
1013.3mb 72f
3:06 6 7 mph 1013.4mb 72f
3:00 7 8 mph 1013.4mb 72f
2:54 8 9 mph 1013.4mb 72f
2:48 6 7 mph - 72f
2:42 5 6 mph - 72f
2:36 6
mph
- 72f
2:30 3 5 mph 1013.5mb 72f
2:24 1 2 mph 1013.6mb 72f
2:18  -  1 mph 1013.5mb 72f
2:12  -  1 mph 1013.6mb 72f
2:06  -  1 mph 1013.6mb 72f
2:00 2
mph
1013.7mb 72f
1:54  -  mph 1013.7mb 73f
1:48  -  mph 1013.7mb 73f
1:42  -  mph 1013.7mb 73f
1:36  -  mph 1013.8mb 72f
1:30  -  1 mph 1013.8mb 72f
1:24 1 2 mph 1013.8mb 73f
1:18  -  1 mph 1013.8mb 73f
1:12  -  mph 1013.9mb 73f
1:06  -  mph 1014mb 73f
1:00  -  1 mph 1014mb 73f
12:54  -  1 mph 1014.1mb 73f
12:48  -  1 mph 1014.1mb 73f
12:42  -  1 mph 1014mb 73f
12:36  -  mph 1014.1mb 73f
12:30  -  mph 1014.1mb 73f
12:24  -  mph 1014.2mb 73f
12:18  -  mph 1014.3mb 73f
12:12  -  mph 1014.3mb 73f
12:06  -  mph 1014.3mb 73f
12:00  -  mph 1014.3mb 73f
mar. 07/28 11:54  -  mph 1014.3mb 73f
11:48  -  mph 1014.4mb 73f
11:42  -  mph 1014.3mb 73f
11:36  -  1 mph 1014.3mb 73f
11:30 1 2 mph 1014.3mb 73f
11:24 1 2 mph 1014.3mb 73f
11:18  -  mph 1014.3mb 73f
11:12  -  1 mph 1014.3mb 73f
11:06 1 2 mph 1014.3mb 73f
11:00 1
mph
1014.3mb 73f
10:54  -  mph 1014.3mb 73f
10:48  -  1 mph 1014.3mb 73f
10:42 1 2 mph 1014.3mb 73f
10:36 2
mph
1014.2mb 73f
10:30 1
mph
1014.2mb 73f
10:24  -  1 mph 1014.2mb 73f
10:18 3
mph
1014.3mb 73f
10:12  -  2 mph 1014.3mb 73f
10:06  -  mph 1014.4mb 73f
10:00  -  1 mph 1014.4mb 73f
9:54 2 5 mph 1014.4mb 74f
9:48 5 6 mph 1014.3mb 74f
9:42  -  1 mph 1014.4mb 74f
9:36  -  1 mph 1014.3mb 74f
9:30 1 2 mph 1014.4mb 75f
9:24  -  2 mph 1014.4mb 75f
9:18  -  1 mph 1014.5mb 75f
9:12 1 2 mph 1014.4mb 75f
9:06  -  2 mph 1014.4mb 75f
9:00 2 3 mph 1014.4mb 75f
8:54 3
mph
1014.2mb 75f
8:48 3 5 mph 1014.2mb 75f
8:42 3
mph
1014.1mb 75f
8:36 3 5 mph 1014mb 75f
8:30 5 6 mph 1013.9mb 75f
8:24 7 8 mph 1013.8mb 75f
8:18 6 7 mph 1013.7mb 75f
8:12 7 8 mph 1013.7mb 76f
8:06 8 9 mph 1013.7mb 76f
8:00 7 9 mph 1013.7mb 75f
7:54 7 8 mph 1013.6mb 76f
7:48 8 9 mph 1013.6mb 76f
7:42 6 8 mph 1013.6mb 76f
7:36 6 7 mph 1013.6mb 76f
7:30 6 8 mph 1013.5mb 76f
7:24 6 7 mph 1013.5mb 76f
7:18 5
mph
1013.6mb 76f
7:12 5 6 mph 1013.6mb 76f
7:06 6
mph
1013.6mb 76f
7:00 7 8 mph 1013.6mb 76f
6:54 7 9 mph 1013.6mb 76f
6:48 8 9 mph 1013.6mb 76f
6:42 7 9 mph 1013.6mb 76f